sensor_id;sensor_type;location;lat;lon;timestamp;temperature;humidity
30097;DHT22;16915;51.466;3.610;2023-05-10T00:00:07;12.50;99.90
30097;DHT22;16915;51.466;3.610;2023-05-10T00:02:32;12.40;99.90
30097;DHT22;16915;51.466;3.610;2023-05-10T00:04:58;12.50;99.90
30097;DHT22;16915;51.466;3.610;2023-05-10T00:07:23;12.40;99.90
30097;DHT22;16915;51.466;3.610;2023-05-10T00:09:49;12.40;99.90
30097;DHT22;16915;51.466;3.610;2023-05-10T00:12:14;12.30;99.90
30097;DHT22;16915;51.466;3.610;2023-05-10T00:14:40;12.30;99.90
30097;DHT22;16915;51.466;3.610;2023-05-10T00:17:05;12.20;99.90
30097;DHT22;16915;51.466;3.610;2023-05-10T00:19:31;12.20;99.90
30097;DHT22;16915;51.466;3.610;2023-05-10T00:21:56;12.20;99.90
30097;DHT22;16915;51.466;3.610;2023-05-10T00:24:22;12.20;99.90
30097;DHT22;16915;51.466;3.610;2023-05-10T00:26:47;12.40;99.90
30097;DHT22;16915;51.466;3.610;2023-05-10T00:29:13;12.30;99.90
30097;DHT22;16915;51.466;3.610;2023-05-10T00:31:38;12.30;99.90
30097;DHT22;16915;51.466;3.610;2023-05-10T00:34:04;12.30;99.90
30097;DHT22;16915;51.466;3.610;2023-05-10T00:36:29;12.30;99.90
30097;DHT22;16915;51.466;3.610;2023-05-10T00:38:56;12.40;99.90
30097;DHT22;16915;51.466;3.610;2023-05-10T00:41:21;12.40;99.90
30097;DHT22;16915;51.466;3.610;2023-05-10T00:43:47;12.40;99.90
30097;DHT22;16915;51.466;3.610;2023-05-10T00:46:14;12.40;99.90
30097;DHT22;16915;51.466;3.610;2023-05-10T00:48:40;12.50;99.90
30097;DHT22;16915;51.466;3.610;2023-05-10T00:51:06;12.40;99.90
30097;DHT22;16915;51.466;3.610;2023-05-10T00:53:31;12.50;99.90
30097;DHT22;16915;51.466;3.610;2023-05-10T00:55:58;12.50;99.90
30097;DHT22;16915;51.466;3.610;2023-05-10T00:58:24;12.50;99.90
30097;DHT22;16915;51.466;3.610;2023-05-10T01:00:54;12.40;99.90
30097;DHT22;16915;51.466;3.610;2023-05-10T01:03:20;12.50;99.90
30097;DHT22;16915;51.466;3.610;2023-05-10T01:05:46;12.40;99.90
30097;DHT22;16915;51.466;3.610;2023-05-10T01:08:11;12.40;99.90
30097;DHT22;16915;51.466;3.610;2023-05-10T01:10:36;12.40;99.90
30097;DHT22;16915;51.466;3.610;2023-05-10T01:13:02;12.40;99.90
30097;DHT22;16915;51.466;3.610;2023-05-10T01:15:28;12.40;99.90
30097;DHT22;16915;51.466;3.610;2023-05-10T01:17:54;12.40;99.90
30097;DHT22;16915;51.466;3.610;2023-05-10T01:20:20;12.30;99.90
30097;DHT22;16915;51.466;3.610;2023-05-10T01:30:43;12.20;99.90
30097;DHT22;16915;51.466;3.610;2023-05-10T01:33:26;12.20;99.90
30097;DHT22;16915;51.466;3.610;2023-05-10T01:43:22;12.30;99.90
30097;DHT22;16915;51.466;3.610;2023-05-10T01:48:21;12.30;99.90
30097;DHT22;16915;51.466;3.610;2023-05-10T01:50:48;12.40;99.90
30097;DHT22;16915;51.466;3.610;2023-05-10T01:53:16;12.40;99.90
30097;DHT22;16915;51.466;3.610;2023-05-10T01:55:48;12.40;99.90
30097;DHT22;16915;51.466;3.610;2023-05-10T01:58:15;12.40;99.90
30097;DHT22;16915;51.466;3.610;2023-05-10T02:00:43;12.40;99.90
30097;DHT22;16915;51.466;3.610;2023-05-10T02:03:09;12.40;99.90
30097;DHT22;16915;51.466;3.610;2023-05-10T02:05:36;12.40;99.90
30097;DHT22;16915;51.466;3.610;2023-05-10T02:08:03;12.40;99.90
30097;DHT22;16915;51.466;3.610;2023-05-10T02:10:30;12.30;99.90
30097;DHT22;16915;51.466;3.610;2023-05-10T02:12:58;12.30;99.90
30097;DHT22;16915;51.466;3.610;2023-05-10T02:15:24;12.20;99.90
30097;DHT22;16915;51.466;3.610;2023-05-10T02:17:50;12.20;99.90
30097;DHT22;16915;51.466;3.610;2023-05-10T02:20:16;12.10;99.90
30097;DHT22;16915;51.466;3.610;2023-05-10T02:22:42;12.00;99.90
30097;DHT22;16915;51.466;3.610;2023-05-10T02:25:08;12.00;99.90
30097;DHT22;16915;51.466;3.610;2023-05-10T02:27:34;12.00;99.90
30097;DHT22;16915;51.466;3.610;2023-05-10T02:30:00;11.90;99.90
30097;DHT22;16915;51.466;3.610;2023-05-10T02:32:26;11.90;99.90
30097;DHT22;16915;51.466;3.610;2023-05-10T02:34:52;11.90;99.90
30097;DHT22;16915;51.466;3.610;2023-05-10T02:37:21;11.90;99.90
30097;DHT22;16915;51.466;3.610;2023-05-10T02:39:47;11.90;99.90
30097;DHT22;16915;51.466;3.610;2023-05-10T02:42:14;11.90;99.90
30097;DHT22;16915;51.466;3.610;2023-05-10T02:44:41;11.90;99.90
30097;DHT22;16915;51.466;3.610;2023-05-10T02:47:07;11.90;99.90
30097;DHT22;16915;51.466;3.610;2023-05-10T02:49:32;11.90;99.90
30097;DHT22;16915;51.466;3.610;2023-05-10T02:51:59;11.90;99.90
30097;DHT22;16915;51.466;3.610;2023-05-10T02:54:27;11.90;99.90
30097;DHT22;16915;51.466;3.610;2023-05-10T02:56:56;12.00;99.90
30097;DHT22;16915;51.466;3.610;2023-05-10T02:59:22;12.00;99.90
30097;DHT22;16915;51.466;3.610;2023-05-10T03:01:47;12.10;99.90
30097;DHT22;16915;51.466;3.610;2023-05-10T03:04:13;12.10;99.90
30097;DHT22;16915;51.466;3.610;2023-05-10T03:06:38;12.10;99.90
30097;DHT22;16915;51.466;3.610;2023-05-10T03:09:04;12.10;99.90
30097;DHT22;16915;51.466;3.610;2023-05-10T03:16:25;12.00;99.90
30097;DHT22;16915;51.466;3.610;2023-05-10T03:19:01;12.00;99.90
30097;DHT22;16915;51.466;3.610;2023-05-10T03:21:28;11.90;99.90
30097;DHT22;16915;51.466;3.610;2023-05-10T03:23:58;11.90;99.90
30097;DHT22;16915;51.466;3.610;2023-05-10T03:26:24;11.90;99.90
30097;DHT22;16915;51.466;3.610;2023-05-10T03:28:51;11.90;99.90
30097;DHT22;16915;51.466;3.610;2023-05-10T03:31:17;11.90;99.90
30097;DHT22;16915;51.466;3.610;2023-05-10T03:33:49;11.80;99.90
30097;DHT22;16915;51.466;3.610;2023-05-10T03:36:15;11.70;99.90
30097;DHT22;16915;51.466;3.610;2023-05-10T03:38:41;11.70;99.90
30097;DHT22;16915;51.466;3.610;2023-05-10T03:41:06;11.70;99.90
30097;DHT22;16915;51.466;3.610;2023-05-10T03:43:32;11.60;99.90
30097;DHT22;16915;51.466;3.610;2023-05-10T03:45:57;11.60;99.90
30097;DHT22;16915;51.466;3.610;2023-05-10T03:48:23;11.60;99.90
30097;DHT22;16915;51.466;3.610;2023-05-10T03:50:48;11.60;99.90
30097;DHT22;16915;51.466;3.610;2023-05-10T03:53:14;11.60;99.90
30097;DHT22;16915;51.466;3.610;2023-05-10T03:55:40;11.60;99.90
30097;DHT22;16915;51.466;3.610;2023-05-10T03:58:05;11.50;99.90
30097;DHT22;16915;51.466;3.610;2023-05-10T04:00:31;11.40;99.90
30097;DHT22;16915;51.466;3.610;2023-05-10T04:02:57;11.40;99.90
30097;DHT22;16915;51.466;3.610;2023-05-10T04:05:23;11.40;99.90
30097;DHT22;16915;51.466;3.610;2023-05-10T04:07:48;11.40;99.90
30097;DHT22;16915;51.466;3.610;2023-05-10T04:10:15;11.40;99.90
30097;DHT22;16915;51.466;3.610;2023-05-10T04:12:41;11.30;99.90
30097;DHT22;16915;51.466;3.610;2023-05-10T04:15:07;11.40;99.90
30097;DHT22;16915;51.466;3.610;2023-05-10T04:17:32;11.40;99.90
30097;DHT22;16915;51.466;3.610;2023-05-10T04:19:58;11.30;99.90
30097;DHT22;16915;51.466;3.610;2023-05-10T04:22:23;11.40;99.90
30097;DHT22;16915;51.466;3.610;2023-05-10T04:24:48;11.30;99.90
30097;DHT22;16915;51.466;3.610;2023-05-10T04:27:14;11.30;99.90
30097;DHT22;16915;51.466;3.610;2023-05-10T04:29:39;11.30;99.90
30097;DHT22;16915;51.466;3.610;2023-05-10T04:32:05;11.20;99.90
30097;DHT22;16915;51.466;3.610;2023-05-10T04:34:30;11.20;99.90
30097;DHT22;16915;51.466;3.610;2023-05-10T04:36:56;11.20;99.90
30097;DHT22;16915;51.466;3.610;2023-05-10T04:39:21;11.30;99.90
30097;DHT22;16915;51.466;3.610;2023-05-10T04:41:47;11.30;99.90
30097;DHT22;16915;51.466;3.610;2023-05-10T04:44:12;11.40;99.90
30097;DHT22;16915;51.466;3.610;2023-05-10T04:46:37;11.40;99.90
30097;DHT22;16915;51.466;3.610;2023-05-10T04:49:03;11.40;99.90
30097;DHT22;16915;51.466;3.610;2023-05-10T04:51:28;11.40;99.90
30097;DHT22;16915;51.466;3.610;2023-05-10T04:53:54;11.50;99.90
30097;DHT22;16915;51.466;3.610;2023-05-10T04:56:20;11.50;99.90
30097;DHT22;16915;51.466;3.610;2023-05-10T04:58:47;11.50;99.90
30097;DHT22;16915;51.466;3.610;2023-05-10T05:01:12;11.60;99.90
30097;DHT22;16915;51.466;3.610;2023-05-10T05:03:38;11.60;99.90
30097;DHT22;16915;51.466;3.610;2023-05-10T05:06:03;11.60;99.90
30097;DHT22;16915;51.466;3.610;2023-05-10T05:08:28;11.70;99.90
30097;DHT22;16915;51.466;3.610;2023-05-10T05:10:54;11.80;99.90
30097;DHT22;16915;51.466;3.610;2023-05-10T05:13:20;11.80;99.90
30097;DHT22;16915;51.466;3.610;2023-05-10T05:15:45;11.90;99.90
30097;DHT22;16915;51.466;3.610;2023-05-10T05:18:11;12.10;99.90
30097;DHT22;16915;51.466;3.610;2023-05-10T05:20:36;12.20;99.90
30097;DHT22;16915;51.466;3.610;2023-05-10T05:23:01;12.40;99.90
30097;DHT22;16915;51.466;3.610;2023-05-10T05:25:27;12.40;99.90
30097;DHT22;16915;51.466;3.610;2023-05-10T05:27:53;12.50;99.90
30097;DHT22;16915;51.466;3.610;2023-05-10T05:30:18;12.60;99.90
30097;DHT22;16915;51.466;3.610;2023-05-10T05:32:44;12.70;99.90
30097;DHT22;16915;51.466;3.610;2023-05-10T05:35:09;13.00;99.90
30097;DHT22;16915;51.466;3.610;2023-05-10T05:37:35;13.20;99.90
30097;DHT22;16915;51.466;3.610;2023-05-10T05:40:00;13.50;99.90
30097;DHT22;16915;51.466;3.610;2023-05-10T05:42:26;13.50;99.90
30097;DHT22;16915;51.466;3.610;2023-05-10T05:44:52;13.50;99.90
30097;DHT22;16915;51.466;3.610;2023-05-10T05:47:17;13.40;99.90
30097;DHT22;16915;51.466;3.610;2023-05-10T05:49:43;13.30;99.90
30097;DHT22;16915;51.466;3.610;2023-05-10T05:52:11;13.20;99.90
30097;DHT22;16915;51.466;3.610;2023-05-10T05:54:36;13.00;99.90
30097;DHT22;16915;51.466;3.610;2023-05-10T05:57:02;12.90;99.90
30097;DHT22;16915;51.466;3.610;2023-05-10T05:59:27;12.80;99.90
30097;DHT22;16915;51.466;3.610;2023-05-10T06:01:53;12.70;99.90
30097;DHT22;16915;51.466;3.610;2023-05-10T06:04:19;12.70;99.90
30097;DHT22;16915;51.466;3.610;2023-05-10T06:06:45;12.70;99.90
30097;DHT22;16915;51.466;3.610;2023-05-10T06:09:10;12.70;99.90
30097;DHT22;16915;51.466;3.610;2023-05-10T06:11:36;12.70;99.90
30097;DHT22;16915;51.466;3.610;2023-05-10T06:14:02;12.70;99.90
30097;DHT22;16915;51.466;3.610;2023-05-10T06:16:28;12.80;99.90
30097;DHT22;16915;51.466;3.610;2023-05-10T06:18:54;13.00;99.90
30097;DHT22;16915;51.466;3.610;2023-05-10T06:21:20;13.00;99.90
30097;DHT22;16915;51.466;3.610;2023-05-10T06:23:46;13.10;99.90
30097;DHT22;16915;51.466;3.610;2023-05-10T06:26:11;13.10;99.90
30097;DHT22;16915;51.466;3.610;2023-05-10T06:28:37;13.30;99.90
30097;DHT22;16915;51.466;3.610;2023-05-10T06:31:06;13.40;99.90
30097;DHT22;16915;51.466;3.610;2023-05-10T06:33:32;13.50;99.90
30097;DHT22;16915;51.466;3.610;2023-05-10T06:35:57;13.50;99.90
30097;DHT22;16915;51.466;3.610;2023-05-10T06:38:23;13.80;99.90
30097;DHT22;16915;51.466;3.610;2023-05-10T06:40:48;14.00;99.90
30097;DHT22;16915;51.466;3.610;2023-05-10T06:43:14;14.10;99.90
30097;DHT22;16915;51.466;3.610;2023-05-10T06:47:08;14.20;99.90
30097;DHT22;16915;51.466;3.610;2023-05-10T06:49:34;14.40;99.90
30097;DHT22;16915;51.466;3.610;2023-05-10T06:51:59;14.50;99.90
30097;DHT22;16915;51.466;3.610;2023-05-10T06:54:25;14.60;99.90
30097;DHT22;16915;51.466;3.610;2023-05-10T06:56:50;14.70;99.90
30097;DHT22;16915;51.466;3.610;2023-05-10T06:59:16;14.90;99.90
30097;DHT22;16915;51.466;3.610;2023-05-10T07:01:42;14.90;99.90
30097;DHT22;16915;51.466;3.610;2023-05-10T07:04:08;14.90;99.90
30097;DHT22;16915;51.466;3.610;2023-05-10T07:06:34;14.90;99.90
30097;DHT22;16915;51.466;3.610;2023-05-10T07:09:00;15.10;99.90
30097;DHT22;16915;51.466;3.610;2023-05-10T07:11:25;15.20;99.90
30097;DHT22;16915;51.466;3.610;2023-05-10T07:13:52;15.30;99.90
30097;DHT22;16915;51.466;3.610;2023-05-10T07:16:17;15.20;99.90
30097;DHT22;16915;51.466;3.610;2023-05-10T07:18:43;15.40;99.90
30097;DHT22;16915;51.466;3.610;2023-05-10T07:21:08;15.50;99.90
30097;DHT22;16915;51.466;3.610;2023-05-10T07:23:34;15.40;99.90
30097;DHT22;16915;51.466;3.610;2023-05-10T07:25:59;15.30;99.90
30097;DHT22;16915;51.466;3.610;2023-05-10T07:28:25;15.30;99.90
30097;DHT22;16915;51.466;3.610;2023-05-10T07:30:51;15.20;99.90
30097;DHT22;16915;51.466;3.610;2023-05-10T07:33:16;15.20;99.90
30097;DHT22;16915;51.466;3.610;2023-05-10T07:35:42;15.00;99.90
30097;DHT22;16915;51.466;3.610;2023-05-10T07:38:08;14.90;99.90
30097;DHT22;16915;51.466;3.610;2023-05-10T07:40:34;14.90;99.90
30097;DHT22;16915;51.466;3.610;2023-05-10T07:42:59;14.80;99.90
30097;DHT22;16915;51.466;3.610;2023-05-10T07:45:27;14.80;99.90
30097;DHT22;16915;51.466;3.610;2023-05-10T07:47:52;14.80;99.90
30097;DHT22;16915;51.466;3.610;2023-05-10T07:50:18;14.70;99.90
30097;DHT22;16915;51.466;3.610;2023-05-10T07:52:44;14.60;99.90
30097;DHT22;16915;51.466;3.610;2023-05-10T07:55:09;14.60;99.90
30097;DHT22;16915;51.466;3.610;2023-05-10T07:57:35;14.70;99.90
30097;DHT22;16915;51.466;3.610;2023-05-10T08:00:01;14.90;99.90
30097;DHT22;16915;51.466;3.610;2023-05-10T08:02:26;14.80;99.90
30097;DHT22;16915;51.466;3.610;2023-05-10T08:04:52;14.80;99.90
30097;DHT22;16915;51.466;3.610;2023-05-10T08:07:18;15.00;99.90
30097;DHT22;16915;51.466;3.610;2023-05-10T08:09:43;15.10;99.90
30097;DHT22;16915;51.466;3.610;2023-05-10T08:12:09;15.00;99.90
30097;DHT22;16915;51.466;3.610;2023-05-10T08:14:35;15.10;99.90
30097;DHT22;16915;51.466;3.610;2023-05-10T08:17:02;15.20;99.90
30097;DHT22;16915;51.466;3.610;2023-05-10T08:19:28;15.30;99.90
30097;DHT22;16915;51.466;3.610;2023-05-10T08:21:53;15.30;99.90
30097;DHT22;16915;51.466;3.610;2023-05-10T08:24:21;15.50;99.90
30097;DHT22;16915;51.466;3.610;2023-05-10T08:26:47;15.60;99.90
30097;DHT22;16915;51.466;3.610;2023-05-10T08:29:13;15.70;99.90
30097;DHT22;16915;51.466;3.610;2023-05-10T08:31:39;15.90;99.90
30097;DHT22;16915;51.466;3.610;2023-05-10T08:34:04;16.10;99.90
30097;DHT22;16915;51.466;3.610;2023-05-10T08:36:30;16.50;99.90
30097;DHT22;16915;51.466;3.610;2023-05-10T08:38:57;16.80;99.90
30097;DHT22;16915;51.466;3.610;2023-05-10T08:41:23;17.00;99.90
30097;DHT22;16915;51.466;3.610;2023-05-10T08:43:51;17.10;99.90
30097;DHT22;16915;51.466;3.610;2023-05-10T08:46:19;17.20;99.90
30097;DHT22;16915;51.466;3.610;2023-05-10T08:48:46;17.00;99.90
30097;DHT22;16915;51.466;3.610;2023-05-10T08:51:18;16.70;99.90
30097;DHT22;16915;51.466;3.610;2023-05-10T08:53:45;16.80;99.90
30097;DHT22;16915;51.466;3.610;2023-05-10T08:56:11;16.90;99.90
30097;DHT22;16915;51.466;3.610;2023-05-10T08:58:37;17.00;99.90
30097;DHT22;16915;51.466;3.610;2023-05-10T09:01:04;17.00;99.90
30097;DHT22;16915;51.466;3.610;2023-05-10T09:03:30;17.40;99.90
30097;DHT22;16915;51.466;3.610;2023-05-10T09:05:56;17.40;99.90
30097;DHT22;16915;51.466;3.610;2023-05-10T09:08:23;17.20;99.90
30097;DHT22;16915;51.466;3.610;2023-05-10T09:10:52;17.00;99.90
30097;DHT22;16915;51.466;3.610;2023-05-10T09:13:18;16.90;99.90
30097;DHT22;16915;51.466;3.610;2023-05-10T09:15:45;17.20;99.90
30097;DHT22;16915;51.466;3.610;2023-05-10T09:18:11;17.60;99.90
30097;DHT22;16915;51.466;3.610;2023-05-10T09:20:37;17.80;99.90
30097;DHT22;16915;51.466;3.610;2023-05-10T09:23:02;18.00;99.90
30097;DHT22;16915;51.466;3.610;2023-05-10T09:25:28;18.20;99.90
30097;DHT22;16915;51.466;3.610;2023-05-10T09:27:54;18.20;99.90
30097;DHT22;16915;51.466;3.610;2023-05-10T09:30:25;18.20;99.90
30097;DHT22;16915;51.466;3.610;2023-05-10T09:32:52;18.30;99.90
30097;DHT22;16915;51.466;3.610;2023-05-10T09:35:19;18.50;99.90
30097;DHT22;16915;51.466;3.610;2023-05-10T09:37:47;18.60;99.90
30097;DHT22;16915;51.466;3.610;2023-05-10T09:40:15;18.70;99.90
30097;DHT22;16915;51.466;3.610;2023-05-10T09:45:28;19.60;99.90
30097;DHT22;16915;51.466;3.610;2023-05-10T09:47:54;19.90;99.90
30097;DHT22;16915;51.466;3.610;2023-05-10T09:50:20;20.10;99.90
30097;DHT22;16915;51.466;3.610;2023-05-10T09:52:58;20.10;99.90
30097;DHT22;16915;51.466;3.610;2023-05-10T09:58:04;20.10;99.90
30097;DHT22;16915;51.466;3.610;2023-05-10T10:00:40;20.10;99.90
30097;DHT22;16915;51.466;3.610;2023-05-10T10:03:11;20.20;99.90
30097;DHT22;16915;51.466;3.610;2023-05-10T10:05:38;20.20;99.90
30097;DHT22;16915;51.466;3.610;2023-05-10T10:08:05;20.30;99.90
30097;DHT22;16915;51.466;3.610;2023-05-10T10:10:32;20.50;99.90
30097;DHT22;16915;51.466;3.610;2023-05-10T10:12:58;20.30;99.90
30097;DHT22;16915;51.466;3.610;2023-05-10T10:15:25;20.40;99.90
30097;DHT22;16915;51.466;3.610;2023-05-10T10:17:52;20.60;99.90
30097;DHT22;16915;51.466;3.610;2023-05-10T10:20:19;20.80;99.90
30097;DHT22;16915;51.466;3.610;2023-05-10T10:22:45;20.90;99.90
30097;DHT22;16915;51.466;3.610;2023-05-10T10:25:12;21.10;99.90
30097;DHT22;16915;51.466;3.610;2023-05-10T10:30:21;20.80;99.90
30097;DHT22;16915;51.466;3.610;2023-05-10T10:35:46;20.80;99.90
30097;DHT22;16915;51.466;3.610;2023-05-10T10:38:12;21.10;99.90
30097;DHT22;16915;51.466;3.610;2023-05-10T10:40:38;21.40;99.90
30097;DHT22;16915;51.466;3.610;2023-05-10T10:43:22;21.60;99.90
30097;DHT22;16915;51.466;3.610;2023-05-10T10:48:41;21.50;99.90
30097;DHT22;16915;51.466;3.610;2023-05-10T10:51:07;21.20;99.90
30097;DHT22;16915;51.466;3.610;2023-05-10T10:53:33;20.70;99.90
30097;DHT22;16915;51.466;3.610;2023-05-10T10:56:21;20.30;99.90
30097;DHT22;16915;51.466;3.610;2023-05-10T10:58:49;20.20;99.90
30097;DHT22;16915;51.466;3.610;2023-05-10T11:01:19;20.40;99.90
30097;DHT22;16915;51.466;3.610;2023-05-10T11:06:32;20.30;99.90
30097;DHT22;16915;51.466;3.610;2023-05-10T11:09:09;20.30;99.90
30097;DHT22;16915;51.466;3.610;2023-05-10T11:11:36;20.30;99.90
30097;DHT22;16915;51.466;3.610;2023-05-10T11:14:13;20.40;99.90
30097;DHT22;16915;51.466;3.610;2023-05-10T11:16:43;20.50;99.90
30097;DHT22;16915;51.466;3.610;2023-05-10T11:19:16;20.60;99.90
30097;DHT22;16915;51.466;3.610;2023-05-10T11:24:31;20.20;99.90
30097;DHT22;16915;51.466;3.610;2023-05-10T11:26:56;20.10;99.90
30097;DHT22;16915;51.466;3.610;2023-05-10T11:29:22;19.90;99.90
30097;DHT22;16915;51.466;3.610;2023-05-10T11:31:49;19.80;99.90
30097;DHT22;16915;51.466;3.610;2023-05-10T11:34:30;19.80;99.90
30097;DHT22;16915;51.466;3.610;2023-05-10T11:36:57;19.70;99.90
30097;DHT22;16915;51.466;3.610;2023-05-10T11:39:30;19.50;99.90
30097;DHT22;16915;51.466;3.610;2023-05-10T11:41:57;19.60;99.90
30097;DHT22;16915;51.466;3.610;2023-05-10T11:44:23;19.70;99.90
30097;DHT22;16915;51.466;3.610;2023-05-10T11:46:49;19.80;99.90
30097;DHT22;16915;51.466;3.610;2023-05-10T11:49:15;19.70;99.90
30097;DHT22;16915;51.466;3.610;2023-05-10T11:51:43;19.50;99.90
30097;DHT22;16915;51.466;3.610;2023-05-10T11:54:11;19.40;99.90
30097;DHT22;16915;51.466;3.610;2023-05-10T11:56:39;19.40;99.90
30097;DHT22;16915;51.466;3.610;2023-05-10T11:59:05;19.40;99.90
30097;DHT22;16915;51.466;3.610;2023-05-10T12:01:31;19.30;99.90
30097;DHT22;16915;51.466;3.610;2023-05-10T12:03:57;19.20;99.90
30097;DHT22;16915;51.466;3.610;2023-05-10T12:06:30;19.30;99.90
30097;DHT22;16915;51.466;3.610;2023-05-10T12:08:57;19.30;99.90
30097;DHT22;16915;51.466;3.610;2023-05-10T12:11:27;19.30;99.90
30097;DHT22;16915;51.466;3.610;2023-05-10T12:13:53;19.20;99.90
30097;DHT22;16915;51.466;3.610;2023-05-10T12:16:24;19.00;99.90
30097;DHT22;16915;51.466;3.610;2023-05-10T12:18:51;18.90;99.90
30097;DHT22;16915;51.466;3.610;2023-05-10T12:21:18;18.80;99.90
30097;DHT22;16915;51.466;3.610;2023-05-10T12:23:46;18.60;99.90
30097;DHT22;16915;51.466;3.610;2023-05-10T12:26:12;18.60;99.90
30097;DHT22;16915;51.466;3.610;2023-05-10T12:28:38;18.50;99.90
30097;DHT22;16915;51.466;3.610;2023-05-10T12:31:05;18.50;99.90
30097;DHT22;16915;51.466;3.610;2023-05-10T12:33:42;18.70;99.90
30097;DHT22;16915;51.466;3.610;2023-05-10T12:36:12;18.70;99.90
30097;DHT22;16915;51.466;3.610;2023-05-10T12:38:40;18.90;99.90
30097;DHT22;16915;51.466;3.610;2023-05-10T12:41:12;19.10;99.90
30097;DHT22;16915;51.466;3.610;2023-05-10T12:43:39;19.50;99.90
30097;DHT22;16915;51.466;3.610;2023-05-10T12:46:09;19.80;99.90
30097;DHT22;16915;51.466;3.610;2023-05-10T12:48:37;20.00;99.90
30097;DHT22;16915;51.466;3.610;2023-05-10T12:51:03;20.20;99.90
30097;DHT22;16915;51.466;3.610;2023-05-10T12:53:29;20.60;99.90
30097;DHT22;16915;51.466;3.610;2023-05-10T12:55:55;21.00;99.90
30097;DHT22;16915;51.466;3.610;2023-05-10T12:58:21;20.90;99.90
30097;DHT22;16915;51.466;3.610;2023-05-10T13:00:47;21.10;99.90
30097;DHT22;16915;51.466;3.610;2023-05-10T13:03:12;21.20;99.90
30097;DHT22;16915;51.466;3.610;2023-05-10T13:05:38;21.30;99.90
30097;DHT22;16915;51.466;3.610;2023-05-10T13:08:04;21.30;99.90
30097;DHT22;16915;51.466;3.610;2023-05-10T13:10:30;21.30;99.90
30097;DHT22;16915;51.466;3.610;2023-05-10T13:12:56;21.30;99.90
30097;DHT22;16915;51.466;3.610;2023-05-10T13:15:22;21.40;99.90
30097;DHT22;16915;51.466;3.610;2023-05-10T13:17:50;21.50;99.90
30097;DHT22;16915;51.466;3.610;2023-05-10T13:20:16;21.40;99.90
30097;DHT22;16915;51.466;3.610;2023-05-10T13:22:43;21.30;99.90
30097;DHT22;16915;51.466;3.610;2023-05-10T13:25:10;21.20;99.90
30097;DHT22;16915;51.466;3.610;2023-05-10T13:27:36;21.20;99.90
30097;DHT22;16915;51.466;3.610;2023-05-10T13:30:02;21.30;99.90
30097;DHT22;16915;51.466;3.610;2023-05-10T13:32:28;21.60;99.90
30097;DHT22;16915;51.466;3.610;2023-05-10T13:34:55;21.50;99.90
30097;DHT22;16915;51.466;3.610;2023-05-10T13:37:21;21.30;99.90
30097;DHT22;16915;51.466;3.610;2023-05-10T13:39:47;21.10;99.90
30097;DHT22;16915;51.466;3.610;2023-05-10T13:42:12;20.70;99.90
30097;DHT22;16915;51.466;3.610;2023-05-10T13:44:38;20.20;99.90
30097;DHT22;16915;51.466;3.610;2023-05-10T13:47:04;19.90;99.90
30097;DHT22;16915;51.466;3.610;2023-05-10T13:49:30;19.70;99.90
30097;DHT22;16915;51.466;3.610;2023-05-10T13:51:55;19.50;99.90
30097;DHT22;16915;51.466;3.610;2023-05-10T13:54:21;19.30;99.90
30097;DHT22;16915;51.466;3.610;2023-05-10T13:56:47;19.10;99.90
30097;DHT22;16915;51.466;3.610;2023-05-10T13:59:13;19.00;99.90
30097;DHT22;16915;51.466;3.610;2023-05-10T14:01:40;18.90;99.90
30097;DHT22;16915;51.466;3.610;2023-05-10T14:04:05;18.80;99.90
30097;DHT22;16915;51.466;3.610;2023-05-10T14:06:32;18.50;99.90
30097;DHT22;16915;51.466;3.610;2023-05-10T14:08:59;18.50;99.90
30097;DHT22;16915;51.466;3.610;2023-05-10T14:11:24;18.50;99.90
30097;DHT22;16915;51.466;3.610;2023-05-10T14:13:50;18.40;99.90
30097;DHT22;16915;51.466;3.610;2023-05-10T14:16:15;18.30;99.90
30097;DHT22;16915;51.466;3.610;2023-05-10T14:18:41;18.20;99.90
30097;DHT22;16915;51.466;3.610;2023-05-10T14:21:07;18.10;99.90
30097;DHT22;16915;51.466;3.610;2023-05-10T14:23:32;17.90;99.90
30097;DHT22;16915;51.466;3.610;2023-05-10T14:25:58;17.70;99.90
30097;DHT22;16915;51.466;3.610;2023-05-10T14:28:23;17.60;99.90
30097;DHT22;16915;51.466;3.610;2023-05-10T14:30:50;17.50;99.90
30097;DHT22;16915;51.466;3.610;2023-05-10T14:33:16;17.30;99.90
30097;DHT22;16915;51.466;3.610;2023-05-10T14:35:42;17.10;99.90
30097;DHT22;16915;51.466;3.610;2023-05-10T14:38:08;17.00;99.90
30097;DHT22;16915;51.466;3.610;2023-05-10T14:40:33;17.00;99.90
30097;DHT22;16915;51.466;3.610;2023-05-10T14:42:59;16.90;99.90
30097;DHT22;16915;51.466;3.610;2023-05-10T14:45:25;16.90;99.90
30097;DHT22;16915;51.466;3.610;2023-05-10T14:47:51;16.90;99.90
30097;DHT22;16915;51.466;3.610;2023-05-10T14:50:17;16.80;99.90
30097;DHT22;16915;51.466;3.610;2023-05-10T14:52:43;16.80;99.90
30097;DHT22;16915;51.466;3.610;2023-05-10T14:55:09;16.70;99.90
30097;DHT22;16915;51.466;3.610;2023-05-10T14:57:35;16.70;99.90
30097;DHT22;16915;51.466;3.610;2023-05-10T15:00:01;16.80;99.90
30097;DHT22;16915;51.466;3.610;2023-05-10T15:02:27;16.90;99.90
30097;DHT22;16915;51.466;3.610;2023-05-10T15:04:52;16.90;99.90
30097;DHT22;16915;51.466;3.610;2023-05-10T15:07:18;16.90;99.90
30097;DHT22;16915;51.466;3.610;2023-05-10T15:09:44;16.80;99.90
30097;DHT22;16915;51.466;3.610;2023-05-10T15:12:10;16.70;99.90
30097;DHT22;16915;51.466;3.610;2023-05-10T15:14:36;16.60;99.90
30097;DHT22;16915;51.466;3.610;2023-05-10T15:17:02;16.70;99.90
30097;DHT22;16915;51.466;3.610;2023-05-10T15:19:28;16.50;99.90
30097;DHT22;16915;51.466;3.610;2023-05-10T15:21:58;16.50;99.90
30097;DHT22;16915;51.466;3.610;2023-05-10T15:24:24;16.50;99.90
30097;DHT22;16915;51.466;3.610;2023-05-10T15:26:50;16.50;99.90
30097;DHT22;16915;51.466;3.610;2023-05-10T15:29:15;16.50;99.90
30097;DHT22;16915;51.466;3.610;2023-05-10T15:31:46;16.50;99.90
30097;DHT22;16915;51.466;3.610;2023-05-10T15:34:11;16.50;99.90
30097;DHT22;16915;51.466;3.610;2023-05-10T15:36:38;16.60;99.90
30097;DHT22;16915;51.466;3.610;2023-05-10T15:39:03;16.40;99.90
30097;DHT22;16915;51.466;3.610;2023-05-10T15:41:29;16.50;99.90
30097;DHT22;16915;51.466;3.610;2023-05-10T15:43:55;16.40;99.90
30097;DHT22;16915;51.466;3.610;2023-05-10T15:46:21;16.40;99.90
30097;DHT22;16915;51.466;3.610;2023-05-10T15:48:46;16.40;99.90
30097;DHT22;16915;51.466;3.610;2023-05-10T15:51:12;16.50;99.90
30097;DHT22;16915;51.466;3.610;2023-05-10T15:53:38;16.60;99.90
30097;DHT22;16915;51.466;3.610;2023-05-10T15:56:04;16.70;99.90
30097;DHT22;16915;51.466;3.610;2023-05-10T15:58:30;16.60;99.90
30097;DHT22;16915;51.466;3.610;2023-05-10T16:00:56;16.70;99.90
30097;DHT22;16915;51.466;3.610;2023-05-10T16:03:22;16.90;99.90
30097;DHT22;16915;51.466;3.610;2023-05-10T16:05:47;17.00;99.90
30097;DHT22;16915;51.466;3.610;2023-05-10T16:08:13;17.00;99.90